createdAt,value
2018-10-09T00:00:42.295Z,95974.4
2018-10-09T00:01:44.437Z,95972.3
2018-10-09T00:02:46.868Z,95976.2
2018-10-09T00:03:48.750Z,95971.8
2018-10-09T00:04:51.184Z,95977.1
2018-10-09T00:05:53.628Z,95977.5
2018-10-09T00:06:55.490Z,95976.7
2018-10-09T00:07:57.925Z,95976.1
2018-10-09T00:09:00.356Z,95978.2
2018-10-09T00:10:02.535Z,95977.5
2018-10-09T00:11:04.975Z,95977.4
2018-10-09T00:12:07.406Z,95980.3
2018-10-09T00:13:09.834Z,95981.6
2018-10-09T00:14:11.692Z,95984.7
2018-10-09T00:15:13.819Z,95982.3
2018-10-09T00:16:16.240Z,95984.8
2018-10-09T00:17:19.230Z,95985.5
2018-10-09T00:18:21.649Z,95991.5
2018-10-09T00:19:23.793Z,95987.9
2018-10-09T00:20:26.223Z,95985.6
2018-10-09T00:21:28.658Z,95986.2
2018-10-09T00:22:31.089Z,95984.6
2018-10-09T00:23:33.515Z,95985.7
2018-10-09T00:24:35.947Z,95984.5
2018-10-09T00:25:38.378Z,95989.3
2018-10-09T00:26:40.515Z,95984.7
2018-10-09T00:27:42.939Z,95988.4
2018-10-09T00:28:45.091Z,95985.9
2018-10-09T00:29:47.516Z,95987.7
2018-10-09T00:30:49.939Z,95985.9
2018-10-09T00:31:52.089Z,95987
2018-10-09T00:32:53.940Z,95983.6
2018-10-09T00:33:56.373Z,95982.9
2018-10-09T00:34:58.798Z,95983.6
2018-10-09T00:36:01.229Z,95982.4
2018-10-09T00:37:03.654Z,95981.8
2018-10-09T00:38:06.086Z,95981.6
2018-10-09T00:39:08.516Z,95981.3
2018-10-09T00:40:10.136Z,95984.3
2018-10-09T00:41:12.010Z,95984.3
2018-10-09T00:42:14.158Z,95984.5
2018-10-09T00:43:16.312Z,95984.3
2018-10-09T00:44:18.475Z,95984.6
2018-10-09T00:45:20.899Z,95981.3
2018-10-09T00:46:22.780Z,95983.6
2018-10-09T00:47:25.199Z,95981.2
2018-10-09T00:48:27.648Z,95982.6
2018-10-09T00:49:30.076Z,95978.9
2018-10-09T00:50:32.506Z,95980.2
2018-10-09T00:51:34.929Z,95981
2018-10-09T00:52:37.091Z,95981.4
2018-10-09T00:53:39.519Z,95982.6
2018-10-09T00:54:41.671Z,95983.3
2018-10-09T00:55:44.116Z,95984.1
2018-10-09T00:56:46.535Z,95985.8
2018-10-09T00:57:48.403Z,95987.3
2018-10-09T00:58:50.562Z,95986.2
2018-10-09T00:59:52.983Z,95985.7
2018-10-09T01:00:55.149Z,95983.4
2018-10-09T01:01:57.581Z,95985.8
2018-10-09T01:02:59.719Z,95981.1
2018-10-09T01:04:01.857Z,95979.7
2018-10-09T01:05:03.758Z,95982.9
2018-10-09T01:06:06.187Z,95979.2
2018-10-09T01:07:08.615Z,95979.1
2018-10-09T01:08:11.041Z,95980.8
2018-10-09T01:09:13.869Z,95981.3
2018-10-09T01:10:16.499Z,95975.1
2018-10-09T01:11:18.649Z,95978.5
2018-10-09T01:12:21.079Z,95976.5
2018-10-09T01:13:23.235Z,95978.5
2018-10-09T01:14:25.661Z,95977.7
2018-10-09T01:15:28.084Z,95975.9
2018-10-09T01:16:30.235Z,95974.3
2018-10-09T01:17:32.661Z,95980.1
2018-10-09T01:18:35.085Z,95979.9
2018-10-09T01:19:36.669Z,95979.8
2018-10-09T01:20:38.818Z,95976.4
2018-10-09T01:21:40.694Z,95977.7
2018-10-09T01:22:42.820Z,95981
2018-10-09T01:23:44.691Z,95977.6
2018-10-09T01:24:47.109Z,95978
2018-10-09T01:25:49.262Z,95981.5
2018-10-09T01:26:51.701Z,95977.6
2018-10-09T01:27:54.123Z,95977.1
2018-10-09T01:28:56.543Z,95980.8
2018-10-09T01:29:58.968Z,95978
2018-10-09T01:31:01.394Z,95982.1
2018-10-09T01:32:03.544Z,95981.3
2018-10-09T01:33:05.691Z,95983.9
2018-10-09T01:34:08.109Z,95980.2
2018-10-09T01:35:10.360Z,95984.1
2018-10-09T01:36:12.791Z,95985.3
2018-10-09T01:37:15.218Z,95985.6
2018-10-09T01:38:17.378Z,95987.3
2018-10-09T01:39:19.535Z,95983.9
2018-10-09T01:40:21.958Z,95982.1
2018-10-09T01:41:24.379Z,95983
2018-10-09T01:42:26.839Z,95981.7
2018-10-09T01:43:29.261Z,95982.6
2018-10-09T01:44:31.693Z,95979.9
2018-10-09T01:45:34.139Z,95981.3
2018-10-09T01:46:36.565Z,95983.6
2018-10-09T01:47:38.998Z,95981.1
2018-10-09T01:48:41.157Z,95981.8
2018-10-09T01:49:43.303Z,95982.1
2018-10-09T01:50:45.739Z,95979.6
2018-10-09T01:51:48.184Z,95983.6
2018-10-09T01:52:50.607Z,95982.6
2018-10-09T01:53:53.031Z,95982.5
2018-10-09T01:54:55.466Z,95984.4
2018-10-09T01:55:57.612Z,95982.4
2018-10-09T01:56:59.766Z,95985.8
2018-10-09T01:58:02.199Z,95989.3
2018-10-09T01:59:04.626Z,95984.8
2018-10-09T02:00:07.062Z,95983.1
2018-10-09T02:01:09.482Z,95978.9
2018-10-09T02:02:11.908Z,95983.9
2018-10-09T02:03:13.795Z,95985.7
2018-10-09T02:04:16.227Z,95980.4
2018-10-09T02:05:18.381Z,95984.2
2018-10-09T02:06:20.810Z,95981.1
2018-10-09T02:07:23.002Z,95987
2018-10-09T02:08:25.429Z,95985.3
2018-10-09T02:09:27.578Z,95982.4
2018-10-09T02:10:29.745Z,95985.2
2018-10-09T02:11:31.875Z,95988.2
2018-10-09T02:12:34.293Z,95985.4
2018-10-09T02:13:36.443Z,95981.6
2018-10-09T02:14:38.611Z,95979.7
2018-10-09T02:15:40.767Z,95982.2
2018-10-09T02:16:43.199Z,95982.5
2018-10-09T02:17:45.616Z,95984
2018-10-09T02:18:48.055Z,95983.2
2018-10-09T02:19:50.495Z,95983.4
2018-10-09T02:20:52.925Z,95982.1
2018-10-09T02:21:55.049Z,95979.2
2018-10-09T02:22:57.472Z,95984
2018-10-09T02:23:59.626Z,95980.6
2018-10-09T02:25:02.058Z,95981.1
2018-10-09T02:26:04.480Z,95984.9
2018-10-09T02:27:06.640Z,95977.5
2018-10-09T02:28:09.069Z,95976.6
2018-10-09T02:29:11.212Z,95981.4
2018-10-09T02:30:13.638Z,95976.2
2018-10-09T02:31:16.069Z,95983.8
2018-10-09T02:32:18.500Z,95981.6
2018-10-09T02:33:20.973Z,95980
2018-10-09T02:34:23.394Z,95978.4
2018-10-09T02:35:25.250Z,95980.2
2018-10-09T02:36:27.679Z,95983.1
2018-10-09T02:37:30.106Z,95979
2018-10-09T02:38:32.270Z,95981
2018-10-09T02:39:34.151Z,95979.7
2018-10-09T02:40:36.564Z,95977.5
2018-10-09T02:41:38.709Z,95972.8
2018-10-09T02:42:40.869Z,95972.3
2018-10-09T02:43:43.299Z,95976.2
2018-10-09T02:44:45.728Z,95976.6
2018-10-09T02:45:47.592Z,95972.4
2018-10-09T02:46:50.018Z,95973.6
2018-10-09T02:47:52.170Z,95971
2018-10-09T02:48:54.595Z,95972.2
2018-10-09T02:49:57.026Z,95971.6
2018-10-09T02:50:59.186Z,95975.4
2018-10-09T02:52:01.609Z,95972.5
2018-10-09T02:53:04.034Z,95972
2018-10-09T02:54:06.463Z,95971.5
2018-10-09T02:55:08.331Z,95967.6
2018-10-09T02:56:10.508Z,95966.7
2018-10-09T02:57:12.388Z,95967.1
2018-10-09T02:58:14.820Z,95970.8
2018-10-09T02:59:16.977Z,95969.7
2018-10-09T03:00:19.131Z,95969.5
2018-10-09T03:01:21.551Z,95963.2
2018-10-09T03:02:23.982Z,95965.3
2018-10-09T03:03:26.141Z,95964.8
2018-10-09T03:04:28.010Z,95959.3
2018-10-09T03:05:29.895Z,95963.6
2018-10-09T03:06:32.329Z,95963.7
2018-10-09T03:07:34.481Z,95962.8
2018-10-09T03:08:37.108Z,95960.3
2018-10-09T03:09:39.643Z,95963.1
2018-10-09T03:10:41.800Z,95962.6
2018-10-09T03:11:43.945Z,95963
2018-10-09T03:12:46.079Z,95961.6
2018-10-09T03:13:48.499Z,95959.5
2018-10-09T03:14:50.931Z,95962.6
2018-10-09T03:15:52.809Z,95958.4
2018-10-09T03:16:55.231Z,95960.5
2018-10-09T03:17:57.662Z,95958
2018-10-09T03:19:00.075Z,95956.1
2018-10-09T03:20:02.509Z,95956.6
2018-10-09T03:21:04.936Z,95956.7
2018-10-09T03:22:07.099Z,95956.9
2018-10-09T03:23:09.526Z,95954.3
2018-10-09T03:24:11.942Z,95954.3
2018-10-09T03:25:14.358Z,95953.9
2018-10-09T03:26:16.505Z,95953.7
2018-10-09T03:27:18.937Z,95950.2
2018-10-09T03:28:21.356Z,95951.5
2018-10-09T03:29:23.786Z,95950.5
2018-10-09T03:30:25.929Z,95949.6
2018-10-09T03:31:28.361Z,95951.8
2018-10-09T03:32:30.801Z,95951
2018-10-09T03:33:33.210Z,95951.4
2018-10-09T03:34:35.629Z,95948.5
2018-10-09T03:35:38.056Z,95950.6
2018-10-09T03:36:40.510Z,95950.2
2018-10-09T03:37:43.232Z,95953.9
2018-10-09T03:38:45.713Z,95949.7
2018-10-09T03:39:48.160Z,95950
2018-10-09T03:40:50.330Z,95952.4
2018-10-09T03:41:52.478Z,95956.4
2018-10-09T03:42:54.919Z,95954.8
2018-10-09T03:43:57.352Z,95954.6
2018-10-09T03:44:59.531Z,95956.6
2018-10-09T03:46:01.979Z,95957.7
2018-10-09T03:47:04.435Z,95954.6
2018-10-09T03:48:06.882Z,95959
2018-10-09T03:49:09.032Z,95960.1
2018-10-09T03:50:11.521Z,95961.1
2018-10-09T03:51:13.687Z,95957.9
2018-10-09T03:52:16.116Z,95959.5
2018-10-09T03:53:18.574Z,95961.8
2018-10-09T03:54:20.730Z,95962.7
2018-10-09T03:55:22.633Z,95965.2
2018-10-09T03:56:25.070Z,95964.1
2018-10-09T03:57:27.520Z,95966.1
2018-10-09T03:58:29.973Z,95968.7
2018-10-09T03:59:32.159Z,95967.8
2018-10-09T04:00:34.600Z,95969.8
2018-10-09T04:01:36.762Z,95974.4
2018-10-09T04:02:39.202Z,95972
2018-10-09T04:03:41.631Z,95972.5
2018-10-09T04:04:43.519Z,95976.6
2018-10-09T04:05:45.946Z,95977.1
2018-10-09T04:06:48.368Z,95977.3
2018-10-09T04:07:49.967Z,95978.5
2018-10-09T04:08:52.202Z,95974.7
2018-10-09T04:09:54.623Z,95972
2018-10-09T04:10:56.769Z,95973.6
2018-10-09T04:11:58.928Z,95974.3
2018-10-09T04:13:01.062Z,95976.4
2018-10-09T04:14:03.479Z,95980.3
2018-10-09T04:15:05.653Z,95974.8
2018-10-09T04:16:08.077Z,95984
2018-10-09T04:17:10.230Z,95982.9
2018-10-09T04:18:12.118Z,95983.3
2018-10-09T04:19:14.627Z,95981.6
2018-10-09T04:20:16.487Z,95988.2
2018-10-09T04:21:18.912Z,95985.3
2018-10-09T04:22:21.338Z,95987
2018-10-09T04:23:23.759Z,95984.4
2018-10-09T04:24:25.949Z,95984.8
2018-10-09T04:25:28.464Z,95985.8
2018-10-09T04:26:30.879Z,95983.5
2018-10-09T04:27:33.305Z,95981.2
2018-10-09T04:28:35.752Z,95983.5
2018-10-09T04:29:37.897Z,95985.4
2018-10-09T04:30:40.321Z,95979.7
2018-10-09T04:31:42.755Z,95980.4
2018-10-09T04:32:45.180Z,95981.3
2018-10-09T04:33:47.338Z,95986.4
2018-10-09T04:34:49.493Z,95982.9
2018-10-09T04:35:51.920Z,95983.4
2018-10-09T04:36:54.336Z,95983.9
2018-10-09T04:37:56.760Z,95987.9
2018-10-09T04:38:59.189Z,95984.6
2018-10-09T04:40:01.607Z,95988.2
2018-10-09T04:41:03.750Z,95984
2018-10-09T04:42:06.172Z,95983.8
2018-10-09T04:43:08.342Z,95983.3
2018-10-09T04:44:10.483Z,95980.8
2018-10-09T04:45:12.641Z,95978.5
2018-10-09T04:46:14.810Z,95976.8
2018-10-09T04:47:16.951Z,95975.9
2018-10-09T04:48:18.805Z,95979.5
2018-10-09T04:49:20.959Z,95981.1
2018-10-09T04:50:23.389Z,95980
2018-10-09T04:51:25.600Z,95984.7
2018-10-09T04:52:27.761Z,95984.9
2018-10-09T04:53:30.188Z,95986.4
2018-10-09T04:54:32.346Z,95982.6
2018-10-09T04:55:34.777Z,95985.8
2018-10-09T04:56:37.210Z,95981.5
2018-10-09T04:57:39.640Z,95981.5
2018-10-09T04:58:42.062Z,95982.1
2018-10-09T04:59:44.490Z,95984.4
2018-10-09T05:00:47.384Z,95980.2
2018-10-09T05:01:49.564Z,95982
2018-10-09T05:02:51.726Z,95978.5
2018-10-09T05:03:54.152Z,95977.9
2018-10-09T05:04:56.572Z,95981.2
2018-10-09T05:05:59.009Z,95976.2
2018-10-09T05:07:01.430Z,95980.7
2018-10-09T05:08:03.862Z,95985.9
2018-10-09T05:09:06.012Z,95981.4
2018-10-09T05:10:08.451Z,95984.7
2018-10-09T05:11:10.874Z,95983.6
2018-10-09T05:12:13.313Z,95987.5
2018-10-09T05:13:15.743Z,95989.1
2018-10-09T05:14:18.169Z,95986.4
2018-10-09T05:15:20.617Z,95985.1
2018-10-09T05:16:23.048Z,95985.1
2018-10-09T05:17:25.216Z,95983.7
2018-10-09T05:18:27.420Z,95984.8
2018-10-09T05:19:29.889Z,95986.6
2018-10-09T05:20:32.046Z,95986.8
2018-10-09T05:21:34.406Z,95989.9
2018-10-09T05:22:36.554Z,95988.4
2018-10-09T05:23:38.990Z,95991.6
2018-10-09T05:24:41.413Z,95991.4
2018-10-09T05:25:43.836Z,95995.8
2018-10-09T05:26:45.995Z,95996.1
2018-10-09T05:27:48.428Z,95993.4
2018-10-09T05:28:50.862Z,95989.6
2018-10-09T05:29:53.286Z,95993.1
2018-10-09T05:30:55.801Z,95991.2
2018-10-09T05:31:58.282Z,95992.3
2018-10-09T05:33:00.716Z,95989.9
2018-10-09T05:34:03.158Z,95987.6
2018-10-09T05:35:05.323Z,95987.1
2018-10-09T05:36:07.476Z,95990.5
2018-10-09T05:37:09.891Z,95986.1
2018-10-09T05:38:11.772Z,95987.2
2018-10-09T05:39:13.950Z,95986.8
2018-10-09T05:40:16.349Z,95988.9
2018-10-09T05:41:18.794Z,95987.2
2018-10-09T05:42:21.226Z,95981.5
2018-10-09T05:43:23.369Z,95985.6
2018-10-09T05:44:26.538Z,95979.3
2018-10-09T05:45:29.092Z,95978.6
2018-10-09T05:46:31.233Z,95977.3
2018-10-09T05:47:33.668Z,95982.5
2018-10-09T05:48:36.100Z,95984.4
2018-10-09T05:49:38.521Z,95984
2018-10-09T05:50:40.949Z,95982.8
2018-10-09T05:51:43.378Z,95988.2
2018-10-09T05:52:45.423Z,95983.3
2018-10-09T05:53:47.591Z,95977.9
2018-10-09T05:54:49.751Z,95984.4
2018-10-09T05:55:51.905Z,95985.3
2018-10-09T05:56:54.326Z,95984.9
2018-10-09T05:57:56.950Z,95987.4
2018-10-09T05:58:59.511Z,95990.3
2018-10-09T06:00:01.667Z,95988
2018-10-09T06:01:04.097Z,95987.5
2018-10-09T06:02:06.528Z,95987.2
2018-10-09T06:03:08.956Z,95987.2
2018-10-09T06:04:11.379Z,95982.1
2018-10-09T06:05:13.532Z,95985.6
2018-10-09T06:06:15.703Z,95982.3
2018-10-09T06:07:18.148Z,95984.2
2018-10-09T06:08:20.579Z,95984
2018-10-09T06:09:23.011Z,95984.1
2018-10-09T06:10:25.162Z,95985.1
2018-10-09T06:11:27.322Z,95986.1
2018-10-09T06:12:29.751Z,95983.8
2018-10-09T06:13:32.178Z,95983.6
2018-10-09T06:14:34.343Z,95980.9
2018-10-09T06:15:37.081Z,95983
2018-10-09T06:16:39.709Z,95987.4
2018-10-09T06:17:42.149Z,95986.3
2018-10-09T06:18:44.315Z,95989
2018-10-09T06:19:46.749Z,95989.1
2018-10-09T06:20:49.188Z,95992.4
2018-10-09T06:21:51.620Z,95994.9
2018-10-09T06:22:53.790Z,95998.5
2018-10-09T06:23:55.957Z,95997.8
2018-10-09T06:24:58.105Z,95996.8
2018-10-09T06:26:00.537Z,95992
2018-10-09T06:27:02.974Z,95994.6
2018-10-09T06:28:05.873Z,95993.6
2018-10-09T06:29:08.527Z,95996.4
2018-10-09T06:30:11.015Z,95989.8
2018-10-09T06:31:13.513Z,95992.3
2018-10-09T06:32:15.663Z,95989.5
2018-10-09T06:33:18.082Z,95993.8
2018-10-09T06:34:20.259Z,95993
2018-10-09T06:35:22.682Z,95995.5
2018-10-09T06:36:24.572Z,96003.5
2018-10-09T06:37:27.007Z,96006.1
2018-10-09T06:38:29.159Z,96007.1
2018-10-09T06:39:31.581Z,96007.7
2018-10-09T06:40:34.075Z,96013.6
2018-10-09T06:41:36.399Z,96017.3
2018-10-09T06:42:38.957Z,96018
2018-10-09T06:43:41.474Z,96018
2018-10-09T06:44:43.370Z,96020.2
2018-10-09T06:45:45.799Z,96021.3
2018-10-09T06:46:47.946Z,96022.8
2018-10-09T06:47:50.626Z,96022.3
2018-10-09T06:48:53.109Z,96021.6
2018-10-09T06:49:55.536Z,96022.8
2018-10-09T06:50:58.066Z,96023.2
2018-10-09T06:52:00.499Z,96020
2018-10-09T06:53:02.923Z,96022
2018-10-09T06:54:06.346Z,96018.7
2018-10-09T06:55:08.489Z,96022.4
2018-10-09T06:56:10.634Z,96020.3
2018-10-09T06:57:13.064Z,96022.6
2018-10-09T06:58:15.504Z,96023
2018-10-09T06:59:17.649Z,96027.3
2018-10-09T07:00:20.619Z,96025.9
2018-10-09T07:01:23.319Z,96031.4
2018-10-09T07:02:25.748Z,96039.8
2018-10-09T07:03:27.921Z,96041
2018-10-09T07:04:30.371Z,96045.7
2018-10-09T07:05:32.798Z,96046.8
2018-10-09T07:06:35.233Z,96049.6
2018-10-09T07:07:37.692Z,96050.9
2018-10-09T07:08:40.121Z,96052.8
2018-10-09T07:09:42.557Z,96050.6
2018-10-09T07:10:44.969Z,96053.1
2018-10-09T07:11:46.829Z,96054.6
2018-10-09T07:12:49.257Z,96052
2018-10-09T07:13:51.705Z,96054.3
2018-10-09T07:14:54.141Z,96055
2018-10-09T07:15:56.589Z,96053.3
2018-10-09T07:16:58.832Z,96049.9
2018-10-09T07:18:01.295Z,96049.1
2018-10-09T07:19:03.456Z,96051.1
2018-10-09T07:20:05.922Z,96050.5
2018-10-09T07:21:08.075Z,96053.1
2018-10-09T07:22:10.502Z,96052.5
2018-10-09T07:23:12.939Z,96052.9
2018-10-09T07:24:15.384Z,96054.5
2018-10-09T07:25:17.800Z,96056.9
2018-10-09T07:26:20.238Z,96055.6
2018-10-09T07:27:22.660Z,96059.5
2018-10-09T07:28:24.821Z,96060.2
2018-10-09T07:29:26.966Z,96062.1
2018-10-09T07:30:29.397Z,96060.3
2018-10-09T07:31:31.832Z,96062.5
2018-10-09T07:32:34.295Z,96063.8
2018-10-09T07:33:36.720Z,96063.4
2018-10-09T07:34:38.344Z,96063.1
2018-10-09T07:35:40.774Z,96065.9
2018-10-09T07:36:43.207Z,96068.3
2018-10-09T07:37:46.098Z,96069.5
2018-10-09T07:38:48.244Z,96069.8
2018-10-09T07:39:50.680Z,96068.8
2018-10-09T07:40:52.813Z,96070.1
2018-10-09T07:41:55.257Z,96072.9
2018-10-09T07:42:57.691Z,96072
2018-10-09T07:44:00.627Z,96074.2
2018-10-09T07:45:03.182Z,96073.8
2018-10-09T07:46:05.328Z,96080.3
2018-10-09T07:47:07.491Z,96075.5
2018-10-09T07:48:09.915Z,96077.9
2018-10-09T07:49:12.080Z,96079.1
2018-10-09T07:50:14.218Z,96079.4
2018-10-09T07:51:16.663Z,96080.5
2018-10-09T07:52:19.097Z,96082.8
2018-10-09T07:53:21.524Z,96079.1
2018-10-09T07:54:23.409Z,96082.3
2018-10-09T07:55:25.565Z,96077.4
2018-10-09T07:56:27.726Z,96077.4
2018-10-09T07:57:29.627Z,96080.2
2018-10-09T07:58:32.147Z,96078.8
2018-10-09T07:59:34.580Z,96080.1
2018-10-09T08:00:37.010Z,96079.5
2018-10-09T08:01:39.433Z,96078.8
2018-10-09T08:02:41.868Z,96078.7
2018-10-09T08:03:44.030Z,96080
2018-10-09T08:04:46.708Z,96077.2
2018-10-09T08:05:49.226Z,96080.4
2018-10-09T08:06:51.659Z,96082.2
2018-10-09T08:07:54.092Z,96080.3
2018-10-09T08:08:56.522Z,96082.1
2018-10-09T08:09:58.954Z,96078.7
2018-10-09T08:11:01.356Z,96079.6
2018-10-09T08:12:03.829Z,96080.6
2018-10-09T08:13:05.996Z,96081.1
2018-10-09T08:14:08.428Z,96080.1
2018-10-09T08:15:10.852Z,96082.1
2018-10-09T08:16:13.436Z,96078.5
2018-10-09T08:17:15.613Z,96076
2018-10-09T08:18:18.046Z,96079.8
2018-10-09T08:19:20.475Z,96076.9
2018-10-09T08:20:22.347Z,96079
2018-10-09T08:21:24.495Z,96075.5
2018-10-09T08:22:26.650Z,96078.8
2018-10-09T08:23:28.868Z,96075
2018-10-09T08:24:31.300Z,96078.8
2018-10-09T08:25:33.454Z,96078.8
2018-10-09T08:26:35.893Z,96081
2018-10-09T08:27:38.040Z,96077.7
2018-10-09T08:28:40.468Z,96073.9
2018-10-09T08:29:42.633Z,96078
2018-10-09T08:30:45.063Z,96074.8
2018-10-09T08:31:47.528Z,96078.2
2018-10-09T08:32:49.679Z,96080.6
2018-10-09T08:33:52.104Z,96078.5
2018-10-09T08:34:54.003Z,96079.3
2018-10-09T08:35:56.184Z,96076.1
2018-10-09T08:36:58.600Z,96079.1
2018-10-09T08:38:00.768Z,96079.6
2018-10-09T08:39:02.916Z,96076.8
2018-10-09T08:40:04.870Z,96075.4
2018-10-09T08:41:07.230Z,96075.2
2018-10-09T08:42:09.750Z,96075.4
2018-10-09T08:43:12.182Z,96075.7
2018-10-09T08:44:14.035Z,96070.6
2018-10-09T08:45:16.474Z,96073.1
2018-10-09T08:46:19.239Z,96070.7
2018-10-09T08:47:21.838Z,96066.9
2018-10-09T08:48:24.006Z,96069.7
2018-10-09T08:49:26.459Z,96068.6
2018-10-09T08:50:28.623Z,96068
2018-10-09T08:51:30.790Z,96070
2018-10-09T08:52:33.214Z,96071.6
2018-10-09T08:53:35.658Z,96071.6
2018-10-09T08:54:38.098Z,96072.1
2018-10-09T08:55:40.250Z,96075.2
2018-10-09T08:56:42.130Z,96071.9
2018-10-09T08:57:44.347Z,96075.7
2018-10-09T08:58:46.779Z,96079.9
2018-10-09T08:59:49.219Z,96081.1
2018-10-09T09:00:51.394Z,96079.1
2018-10-09T09:01:53.840Z,96080.3
2018-10-09T09:02:56.017Z,96081.4
2018-10-09T09:03:58.460Z,96079.9
2018-10-09T09:05:00.889Z,96081.8
2018-10-09T09:06:03.029Z,96079.3
2018-10-09T09:07:05.461Z,96083.8
2018-10-09T09:08:07.603Z,96083.6
2018-10-09T09:09:09.756Z,96084.6
2018-10-09T09:10:12.200Z,96081.6
2018-10-09T09:11:14.364Z,96081.1
2018-10-09T09:12:16.813Z,96082.3
2018-10-09T09:13:19.246Z,96079.3
2018-10-09T09:14:21.674Z,96078.3
2018-10-09T09:15:24.320Z,96075.1
2018-10-09T09:16:26.461Z,96076.5
2018-10-09T09:17:28.629Z,96078.8
2018-10-09T09:18:31.056Z,96074
2018-10-09T09:19:33.217Z,96073.4
2018-10-09T09:20:35.983Z,96078.1
2018-10-09T09:21:38.423Z,96075
2018-10-09T09:22:40.576Z,96080.1
2018-10-09T09:23:43.007Z,96078
2018-10-09T09:24:44.890Z,96078.5
2018-10-09T09:25:46.507Z,96082
2018-10-09T09:26:48.888Z,96079.8
2018-10-09T09:27:51.898Z,96082
2018-10-09T09:28:54.538Z,96079.2
2018-10-09T09:29:56.970Z,96080.6
2018-10-09T09:30:58.580Z,96083.7
2018-10-09T09:32:00.758Z,96082.2
2018-10-09T09:33:03.363Z,96084.7
2018-10-09T09:34:05.872Z,96082.9
2018-10-09T09:35:08.026Z,96085.4
2018-10-09T09:36:10.453Z,96083.1
2018-10-09T09:37:12.625Z,96084.3
2018-10-09T09:38:15.060Z,96081.4
2018-10-09T09:39:17.499Z,96088.2
2018-10-09T09:40:19.368Z,96086.4
2018-10-09T09:41:21.525Z,96086.2
2018-10-09T09:42:23.702Z,96084
2018-10-09T09:43:26.153Z,96085.7
2018-10-09T09:44:28.587Z,96086.8
2018-10-09T09:45:31.017Z,96088.5
2018-10-09T09:46:33.458Z,96087
2018-10-09T09:47:35.908Z,96086.8
2018-10-09T09:48:38.348Z,96088.3
2018-10-09T09:49:40.778Z,96088.4
2018-10-09T09:50:43.211Z,96083.2
2018-10-09T09:51:45.650Z,96084.4
2018-10-09T09:52:48.090Z,96085.9
2018-10-09T09:53:50.522Z,96085
2018-10-09T09:54:52.946Z,96085
2018-10-09T09:55:55.371Z,96085.4
2018-10-09T09:56:57.808Z,96083.2
2018-10-09T09:58:00.746Z,96087.3
2018-10-09T09:59:04.254Z,96086.5
2018-10-09T10:00:07.038Z,96089.8
2018-10-09T10:01:09.468Z,96083.7
2018-10-09T10:02:11.624Z,96088.9
2018-10-09T10:03:14.048Z,96086.5
2018-10-09T10:04:16.471Z,96087.2
2018-10-09T10:05:18.898Z,96084.7
2018-10-09T10:06:21.338Z,96090.8
2018-10-09T10:07:23.479Z,96089.6
2018-10-09T10:08:25.909Z,96085.9
2018-10-09T10:09:28.507Z,96086.9
2018-10-09T10:10:30.967Z,96079.9
2018-10-09T10:11:33.397Z,96087.5
2018-10-09T10:12:35.835Z,96086.2
2018-10-09T10:13:38.281Z,96085.1
2018-10-09T10:14:40.708Z,96086.6
2018-10-09T10:15:43.477Z,96086.3
2018-10-09T10:16:46.065Z,96080.8
2018-10-09T10:17:48.236Z,96084.2
2018-10-09T10:18:50.388Z,96085.1
2018-10-09T10:19:52.848Z,96085.6
2018-10-09T10:20:54.721Z,96088
2018-10-09T10:21:57.144Z,96086.5
2018-10-09T10:22:59.571Z,96084.5
2018-10-09T10:24:02.017Z,96085.8
2018-10-09T10:25:04.455Z,96086.3
2018-10-09T10:26:06.881Z,96088.2
2018-10-09T10:27:08.761Z,96088.7
2018-10-09T10:28:11.189Z,96085.6
2018-10-09T10:29:13.239Z,96087
2018-10-09T10:30:15.841Z,96089.8
2018-10-09T10:31:18.004Z,96088.6
2018-10-09T10:32:20.152Z,96084.2
2018-10-09T10:33:22.577Z,96086.8
2018-10-09T10:34:24.740Z,96086.7
2018-10-09T10:35:27.198Z,96084.5
2018-10-09T10:36:29.428Z,96090.9
2018-10-09T10:37:31.333Z,96088.2
2018-10-09T10:38:33.760Z,96086.6
2018-10-09T10:39:35.940Z,96085.9
2018-10-09T10:40:38.361Z,96086.8
2018-10-09T10:41:40.788Z,96088.2
2018-10-09T10:42:43.213Z,96087.8
2018-10-09T10:43:45.381Z,96088.6
2018-10-09T10:44:47.808Z,96081
2018-10-09T10:45:50.242Z,96084.4
2018-10-09T10:46:52.669Z,96084.6
2018-10-09T10:47:54.823Z,96085.5
2018-10-09T10:48:57.467Z,96082.3
2018-10-09T10:49:59.969Z,96090.7
2018-10-09T10:51:02.400Z,96088.7
2018-10-09T10:52:04.824Z,96085.7
2018-10-09T10:53:07.247Z,96085.5
2018-10-09T10:54:09.419Z,96083.3
2018-10-09T10:55:11.579Z,96082
2018-10-09T10:56:13.750Z,96085.1
2018-10-09T10:57:15.931Z,96083.4
2018-10-09T10:58:18.360Z,96085.7
2018-10-09T10:59:20.788Z,96084
2018-10-09T11:00:22.936Z,96082.8
2018-10-09T11:01:25.996Z,96082.6
2018-10-09T11:02:28.360Z,96079.1
2018-10-09T11:03:30.794Z,96074.9
2018-10-09T11:04:32.939Z,96076.9
2018-10-09T11:05:35.082Z,96072.6
2018-10-09T11:06:37.507Z,96072.2
2018-10-09T11:07:39.953Z,96071.7
2018-10-09T11:08:42.117Z,96070.5
2018-10-09T11:09:44.282Z,96069.6
2018-10-09T11:10:46.709Z,96067.8
2018-10-09T11:11:48.865Z,96062.8
2018-10-09T11:12:50.728Z,96061.5
2018-10-09T11:13:52.594Z,96064.4
2018-10-09T11:14:54.747Z,96066.4
2018-10-09T11:15:57.181Z,96064.7
2018-10-09T11:16:59.619Z,96066.4
2018-10-09T11:18:01.783Z,96068.8
2018-10-09T11:19:04.209Z,96069.3
2018-10-09T11:20:06.375Z,96069.8
2018-10-09T11:21:09.189Z,96068.3
2018-10-09T11:22:11.420Z,96062.8
2018-10-09T11:23:13.852Z,96061.1
2018-10-09T11:24:16.016Z,96060.1
2018-10-09T11:25:18.450Z,96061.2
2018-10-09T11:26:20.917Z,96060.6
2018-10-09T11:27:23.080Z,96062.8
2018-10-09T11:28:25.510Z,96059.4
2018-10-09T11:29:27.669Z,96058.6
2018-10-09T11:30:30.092Z,96058.5
2018-10-09T11:31:32.534Z,96059.5
2018-10-09T11:32:35.128Z,96054.3
2018-10-09T11:33:37.685Z,96058.3
2018-10-09T11:34:39.861Z,96054.7
2018-10-09T11:35:41.732Z,96057.5
2018-10-09T11:36:43.879Z,96055.8
2018-10-09T11:37:46.317Z,96054.6
2018-10-09T11:38:48.481Z,96055.9
2018-10-09T11:39:50.907Z,96054.6
2018-10-09T11:40:53.331Z,96054.4
2018-10-09T11:41:55.489Z,96052.3
2018-10-09T11:42:58.286Z,96049
2018-10-09T11:44:00.470Z,96048.6
2018-10-09T11:45:02.907Z,96048.3
2018-10-09T11:46:05.339Z,96045.1
2018-10-09T11:47:07.773Z,96043.8
2018-10-09T11:48:09.942Z,96044.9
2018-10-09T11:49:12.065Z,96040.6
2018-10-09T11:50:13.929Z,96041.9
2018-10-09T11:51:16.390Z,96038.1
2018-10-09T11:52:18.823Z,96037
2018-10-09T11:53:21.260Z,96036.4
2018-10-09T11:54:23.413Z,96031.1
2018-10-09T11:55:25.858Z,96039.3
2018-10-09T11:56:28.280Z,96034.8
2018-10-09T11:57:30.721Z,96029.7
2018-10-09T11:58:33.017Z,96021.4
2018-10-09T11:59:35.260Z,96021.9
2018-10-09T12:00:37.142Z,96024.6
2018-10-09T12:01:39.590Z,96026.9
2018-10-09T12:02:42.182Z,96027.9
2018-10-09T12:03:44.655Z,96027.9
2018-10-09T12:04:46.822Z,96023.6
2018-10-09T12:05:49.861Z,96028.7
2018-10-09T12:06:52.171Z,96034.6
2018-10-09T12:07:54.328Z,96023.1
2018-10-09T12:08:56.759Z,96029.2
2018-10-09T12:09:59.200Z,96026.3
2018-10-09T12:11:01.410Z,96026.2
2018-10-09T12:12:03.833Z,96023.1
2018-10-09T12:13:06.259Z,96019.8
2018-10-09T12:14:08.700Z,96022.9
2018-10-09T12:15:11.120Z,96027.8
2018-10-09T12:16:13.582Z,96022.6
2018-10-09T12:17:16.022Z,96019.2
2018-10-09T12:18:18.158Z,96014.9
2018-10-09T12:19:20.040Z,96013.4
2018-10-09T12:20:22.486Z,96012.5
2018-10-09T12:21:25.131Z,96020.6
2018-10-09T12:22:27.399Z,96012.9
2018-10-09T12:23:29.836Z,96014.8
2018-10-09T12:24:32.285Z,96018.1
2018-10-09T12:25:34.444Z,96014.9
2018-10-09T12:26:36.887Z,96012.9
2018-10-09T12:27:39.040Z,96004.3
2018-10-09T12:28:41.472Z,96006.9
2018-10-09T12:29:43.601Z,96001.8
2018-10-09T12:30:45.740Z,96001.6
2018-10-09T12:31:47.067Z,96002.7
2018-10-09T12:32:49.647Z,95998.2
2018-10-09T12:33:52.140Z,95993.6
2018-10-09T12:34:54.576Z,95998.6
2018-10-09T12:35:56.999Z,95994.5
2018-10-09T12:36:59.145Z,95997
2018-10-09T12:38:01.299Z,96000.9